sensor_id;sensor_type;location;lat;lon;timestamp;pressure;altitude;pressure_sealevel;temperature;humidity
22333;BME280;11334;36.986;-121.936;2024-02-28T00:01:37;101233.22;;;18.31;42.75
22333;BME280;11334;36.986;-121.936;2024-02-28T00:04:04;101232.75;;;18.28;42.25
22333;BME280;11334;36.986;-121.936;2024-02-28T00:06:33;101239.16;;;18.27;41.92
22333;BME280;11334;36.986;-121.936;2024-02-28T00:08:59;101240.38;;;18.24;42.79
22333;BME280;11334;36.986;-121.936;2024-02-28T00:11:25;101239.34;;;18.25;43.19
22333;BME280;11334;36.986;-121.936;2024-02-28T00:13:51;101236.00;;;18.23;44.14
22333;BME280;11334;36.986;-121.936;2024-02-28T00:16:18;101234.75;;;18.19;44.35
22333;BME280;11334;36.986;-121.936;2024-02-28T00:18:44;101230.84;;;18.22;43.00
22333;BME280;11334;36.986;-121.936;2024-02-28T00:21:11;101230.31;;;18.33;43.95
22333;BME280;11334;36.986;-121.936;2024-02-28T00:23:37;101237.88;;;18.50;44.46
22333;BME280;11334;36.986;-121.936;2024-02-28T00:26:03;101234.75;;;19.00;44.15
22333;BME280;11334;36.986;-121.936;2024-02-28T00:28:29;101237.66;;;19.52;43.08
22333;BME280;11334;36.986;-121.936;2024-02-28T00:30:55;101235.09;;;19.84;42.06
22333;BME280;11334;36.986;-121.936;2024-02-28T00:33:22;101228.28;;;20.00;41.20
22333;BME280;11334;36.986;-121.936;2024-02-28T00:35:48;101223.75;;;20.07;40.87
22333;BME280;11334;36.986;-121.936;2024-02-28T00:38:14;101227.69;;;20.11;41.00
22333;BME280;11334;36.986;-121.936;2024-02-28T00:40:40;101234.91;;;20.11;40.83
22333;BME280;11334;36.986;-121.936;2024-02-28T00:43:06;101235.94;;;20.03;40.83
22333;BME280;11334;36.986;-121.936;2024-02-28T00:45:33;101239.44;;;19.91;40.60
22333;BME280;11334;36.986;-121.936;2024-02-28T00:47:59;101234.06;;;19.85;41.33
22333;BME280;11334;36.986;-121.936;2024-02-28T00:50:25;101237.19;;;19.82;41.58
22333;BME280;11334;36.986;-121.936;2024-02-28T00:52:51;101230.28;;;19.73;41.73
22333;BME280;11334;36.986;-121.936;2024-02-28T00:55:17;101240.59;;;19.63;41.77
22333;BME280;11334;36.986;-121.936;2024-02-28T00:57:44;101234.97;;;19.52;41.62
22333;BME280;11334;36.986;-121.936;2024-02-28T01:00:11;101232.03;;;19.40;41.63
22333;BME280;11334;36.986;-121.936;2024-02-28T01:02:37;101219.81;;;19.31;42.31
22333;BME280;11334;36.986;-121.936;2024-02-28T01:05:03;101230.91;;;19.22;42.36
22333;BME280;11334;36.986;-121.936;2024-02-28T01:07:30;101227.75;;;19.12;42.19
22333;BME280;11334;36.986;-121.936;2024-02-28T01:09:56;101223.78;;;19.02;42.49
22333;BME280;11334;36.986;-121.936;2024-02-28T01:12:22;101230.16;;;18.95;43.13
22333;BME280;11334;36.986;-121.936;2024-02-28T01:14:48;101228.00;;;18.84;43.54
22333;BME280;11334;36.986;-121.936;2024-02-28T01:17:14;101229.81;;;18.77;43.24
22333;BME280;11334;36.986;-121.936;2024-02-28T01:19:41;101232.25;;;18.66;43.48
22333;BME280;11334;36.986;-121.936;2024-02-28T01:22:07;101232.00;;;18.61;43.94
22333;BME280;11334;36.986;-121.936;2024-02-28T01:24:34;101238.53;;;18.52;44.35
22333;BME280;11334;36.986;-121.936;2024-02-28T01:27:01;101229.81;;;18.43;44.45
22333;BME280;11334;36.986;-121.936;2024-02-28T01:29:27;101223.94;;;18.34;45.03
22333;BME280;11334;36.986;-121.936;2024-02-28T01:31:53;101233.16;;;18.25;45.08
22333;BME280;11334;36.986;-121.936;2024-02-28T01:34:19;101236.78;;;18.17;45.60
22333;BME280;11334;36.986;-121.936;2024-02-28T01:36:46;101237.13;;;18.08;46.21
22333;BME280;11334;36.986;-121.936;2024-02-28T01:39:12;101239.91;;;18.00;45.89
22333;BME280;11334;36.986;-121.936;2024-02-28T01:41:38;101242.72;;;17.92;45.66
22333;BME280;11334;36.986;-121.936;2024-02-28T01:44:04;101235.81;;;17.83;46.80
22333;BME280;11334;36.986;-121.936;2024-02-28T01:46:31;101239.44;;;17.76;47.01
22333;BME280;11334;36.986;-121.936;2024-02-28T01:48:58;101236.13;;;17.74;47.03
22333;BME280;11334;36.986;-121.936;2024-02-28T01:51:26;101237.91;;;17.67;47.50
22333;BME280;11334;36.986;-121.936;2024-02-28T01:53:56;101243.00;;;17.62;46.99
22333;BME280;11334;36.986;-121.936;2024-02-28T01:56:23;101243.56;;;17.58;46.76
22333;BME280;11334;36.986;-121.936;2024-02-28T01:58:51;101245.56;;;17.49;48.06
22333;BME280;11334;36.986;-121.936;2024-02-28T02:01:18;101247.69;;;17.40;48.50
22333;BME280;11334;36.986;-121.936;2024-02-28T02:03:44;101251.94;;;17.34;49.24
22333;BME280;11334;36.986;-121.936;2024-02-28T02:06:11;101252.41;;;17.23;50.13
22333;BME280;11334;36.986;-121.936;2024-02-28T02:08:38;101249.66;;;17.17;51.53
22333;BME280;11334;36.986;-121.936;2024-02-28T02:11:05;101252.22;;;17.10;52.01
22333;BME280;11334;36.986;-121.936;2024-02-28T02:13:32;101257.84;;;17.01;53.19
22333;BME280;11334;36.986;-121.936;2024-02-28T02:15:58;101256.94;;;16.94;54.13
22333;BME280;11334;36.986;-121.936;2024-02-28T02:18:24;101271.22;;;16.87;54.47
22333;BME280;11334;36.986;-121.936;2024-02-28T02:20:54;101267.28;;;16.83;55.22
22333;BME280;11334;36.986;-121.936;2024-02-28T02:23:23;101261.44;;;16.79;55.09
22333;BME280;11334;36.986;-121.936;2024-02-28T02:25:49;101269.94;;;16.69;56.64
22333;BME280;11334;36.986;-121.936;2024-02-28T02:28:16;101271.84;;;16.60;56.98
22333;BME280;11334;36.986;-121.936;2024-02-28T02:30:42;101274.06;;;16.57;57.72
22333;BME280;11334;36.986;-121.936;2024-02-28T02:33:08;101274.84;;;16.43;58.72
22333;BME280;11334;36.986;-121.936;2024-02-28T02:35:35;101276.41;;;16.38;59.00
22333;BME280;11334;36.986;-121.936;2024-02-28T02:38:02;101277.88;;;16.26;59.15
22333;BME280;11334;36.986;-121.936;2024-02-28T02:40:28;101289.09;;;16.21;60.24
22333;BME280;11334;36.986;-121.936;2024-02-28T02:42:54;101277.59;;;16.13;60.10
22333;BME280;11334;36.986;-121.936;2024-02-28T02:45:20;101277.84;;;16.04;60.93
22333;BME280;11334;36.986;-121.936;2024-02-28T02:47:47;101288.78;;;15.94;61.24
22333;BME280;11334;36.986;-121.936;2024-02-28T02:50:13;101278.97;;;15.87;62.23
22333;BME280;11334;36.986;-121.936;2024-02-28T02:52:39;101287.22;;;15.78;62.35
22333;BME280;11334;36.986;-121.936;2024-02-28T02:55:06;101287.44;;;15.68;62.26
22333;BME280;11334;36.986;-121.936;2024-02-28T02:57:33;101291.13;;;15.67;62.56
22333;BME280;11334;36.986;-121.936;2024-02-28T02:59:59;101295.13;;;15.63;63.21
22333;BME280;11334;36.986;-121.936;2024-02-28T03:02:25;101288.75;;;15.42;64.44
22333;BME280;11334;36.986;-121.936;2024-02-28T03:04:51;101297.09;;;15.39;63.60
22333;BME280;11334;36.986;-121.936;2024-02-28T03:07:17;101291.13;;;15.37;63.56
22333;BME280;11334;36.986;-121.936;2024-02-28T03:09:44;101294.47;;;15.31;64.06
22333;BME280;11334;36.986;-121.936;2024-02-28T03:12:10;101305.84;;;15.25;65.03
22333;BME280;11334;36.986;-121.936;2024-02-28T03:14:37;101301.88;;;15.14;65.24
22333;BME280;11334;36.986;-121.936;2024-02-28T03:17:03;101309.06;;;15.05;65.49
22333;BME280;11334;36.986;-121.936;2024-02-28T03:19:29;101308.06;;;14.98;65.87
22333;BME280;11334;36.986;-121.936;2024-02-28T03:21:56;101304.72;;;14.96;66.26
22333;BME280;11334;36.986;-121.936;2024-02-28T03:24:22;101309.94;;;14.90;66.36
22333;BME280;11334;36.986;-121.936;2024-02-28T03:26:48;101311.28;;;14.86;66.22
22333;BME280;11334;36.986;-121.936;2024-02-28T03:29:14;101312.78;;;14.81;66.71
22333;BME280;11334;36.986;-121.936;2024-02-28T03:31:40;101320.13;;;14.79;66.69
22333;BME280;11334;36.986;-121.936;2024-02-28T03:34:06;101315.47;;;14.73;66.95
22333;BME280;11334;36.986;-121.936;2024-02-28T03:36:35;101317.63;;;14.69;67.07
22333;BME280;11334;36.986;-121.936;2024-02-28T03:39:02;101313.13;;;14.70;67.21
22333;BME280;11334;36.986;-121.936;2024-02-28T03:41:29;101310.97;;;14.65;67.54
22333;BME280;11334;36.986;-121.936;2024-02-28T03:43:55;101312.81;;;14.57;67.59
22333;BME280;11334;36.986;-121.936;2024-02-28T03:46:21;101316.84;;;14.53;68.37
22333;BME280;11334;36.986;-121.936;2024-02-28T03:48:48;101315.97;;;14.52;68.72
22333;BME280;11334;36.986;-121.936;2024-02-28T03:51:14;101323.63;;;14.48;68.61
22333;BME280;11334;36.986;-121.936;2024-02-28T03:53:40;101323.31;;;14.43;68.04
22333;BME280;11334;36.986;-121.936;2024-02-28T03:56:07;101325.16;;;14.42;67.65
22333;BME280;11334;36.986;-121.936;2024-02-28T03:58:33;101333.16;;;14.42;67.55
22333;BME280;11334;36.986;-121.936;2024-02-28T04:00:59;101338.16;;;14.37;68.16
22333;BME280;11334;36.986;-121.936;2024-02-28T04:03:25;101337.13;;;14.30;68.30
22333;BME280;11334;36.986;-121.936;2024-02-28T04:05:52;101350.81;;;14.27;68.96
22333;BME280;11334;36.986;-121.936;2024-02-28T04:08:18;101343.47;;;14.22;69.24
22333;BME280;11334;36.986;-121.936;2024-02-28T04:10:44;101349.63;;;14.14;70.07
22333;BME280;11334;36.986;-121.936;2024-02-28T04:13:10;101344.31;;;14.14;69.95
22333;BME280;11334;36.986;-121.936;2024-02-28T04:15:37;101343.97;;;14.09;71.00
22333;BME280;11334;36.986;-121.936;2024-02-28T04:18:04;101347.13;;;14.05;71.25
22333;BME280;11334;36.986;-121.936;2024-02-28T04:20:33;101348.59;;;13.99;71.78
22333;BME280;11334;36.986;-121.936;2024-02-28T04:22:59;101360.72;;;13.94;71.66
22333;BME280;11334;36.986;-121.936;2024-02-28T04:25:25;101361.53;;;13.87;72.42
22333;BME280;11334;36.986;-121.936;2024-02-28T04:27:52;101363.38;;;13.86;72.18
22333;BME280;11334;36.986;-121.936;2024-02-28T04:30:18;101368.50;;;13.80;72.79
22333;BME280;11334;36.986;-121.936;2024-02-28T04:32:44;101378.34;;;13.79;72.93
22333;BME280;11334;36.986;-121.936;2024-02-28T04:35:10;101368.84;;;13.77;73.25
22333;BME280;11334;36.986;-121.936;2024-02-28T04:37:36;101377.31;;;13.72;73.97
22333;BME280;11334;36.986;-121.936;2024-02-28T04:40:03;101382.75;;;13.63;74.29
22333;BME280;11334;36.986;-121.936;2024-02-28T04:42:30;101382.25;;;13.59;74.75
22333;BME280;11334;36.986;-121.936;2024-02-28T04:44:56;101384.22;;;13.57;75.00
22333;BME280;11334;36.986;-121.936;2024-02-28T04:47:23;101381.53;;;13.50;75.40
22333;BME280;11334;36.986;-121.936;2024-02-28T04:49:49;101389.53;;;13.50;75.53
22333;BME280;11334;36.986;-121.936;2024-02-28T04:52:15;101377.16;;;13.41;75.43
22333;BME280;11334;36.986;-121.936;2024-02-28T04:54:41;101392.81;;;13.44;75.62
22333;BME280;11334;36.986;-121.936;2024-02-28T04:57:07;101391.47;;;13.40;76.06
22333;BME280;11334;36.986;-121.936;2024-02-28T04:59:34;101396.13;;;13.38;75.88
22333;BME280;11334;36.986;-121.936;2024-02-28T05:02:00;101392.41;;;13.31;75.63
22333;BME280;11334;36.986;-121.936;2024-02-28T05:04:26;101392.69;;;13.20;76.15
22333;BME280;11334;36.986;-121.936;2024-02-28T05:06:52;101393.66;;;13.19;76.65
22333;BME280;11334;36.986;-121.936;2024-02-28T05:09:18;101395.97;;;13.14;76.98
22333;BME280;11334;36.986;-121.936;2024-02-28T05:11:45;101406.56;;;13.06;76.80
22333;BME280;11334;36.986;-121.936;2024-02-28T05:14:11;101407.72;;;13.04;76.98
22333;BME280;11334;36.986;-121.936;2024-02-28T05:16:37;101407.88;;;13.02;76.62
22333;BME280;11334;36.986;-121.936;2024-02-28T05:19:03;101414.03;;;13.03;77.28
22333;BME280;11334;36.986;-121.936;2024-02-28T05:21:30;101413.34;;;13.01;76.89
22333;BME280;11334;36.986;-121.936;2024-02-28T05:23:59;101416.47;;;12.96;77.18
22333;BME280;11334;36.986;-121.936;2024-02-28T05:26:25;101417.78;;;12.93;77.49
22333;BME280;11334;36.986;-121.936;2024-02-28T05:28:51;101421.59;;;12.90;77.55
22333;BME280;11334;36.986;-121.936;2024-02-28T05:31:22;101419.06;;;12.89;77.87
22333;BME280;11334;36.986;-121.936;2024-02-28T05:33:56;101422.25;;;12.92;77.22
22333;BME280;11334;36.986;-121.936;2024-02-28T05:36:23;101418.56;;;12.85;76.91
22333;BME280;11334;36.986;-121.936;2024-02-28T05:38:50;101419.47;;;12.76;77.02
22333;BME280;11334;36.986;-121.936;2024-02-28T05:41:17;101419.34;;;12.78;77.13
22333;BME280;11334;36.986;-121.936;2024-02-28T05:43:44;101420.91;;;12.71;77.58
22333;BME280;11334;36.986;-121.936;2024-02-28T05:46:11;101419.06;;;12.71;77.02
22333;BME280;11334;36.986;-121.936;2024-02-28T05:48:37;101429.19;;;12.68;77.57
22333;BME280;11334;36.986;-121.936;2024-02-28T05:51:04;101412.69;;;12.64;77.52
22333;BME280;11334;36.986;-121.936;2024-02-28T05:53:30;101417.94;;;12.57;78.09
22333;BME280;11334;36.986;-121.936;2024-02-28T05:56:07;101418.41;;;12.52;78.36
22333;BME280;11334;36.986;-121.936;2024-02-28T05:58:43;101417.75;;;12.50;78.83
22333;BME280;11334;36.986;-121.936;2024-02-28T06:01:10;101414.22;;;12.50;79.04
22333;BME280;11334;36.986;-121.936;2024-02-28T06:03:37;101419.25;;;12.53;78.97
22333;BME280;11334;36.986;-121.936;2024-02-28T06:06:04;101410.91;;;12.48;79.58
22333;BME280;11334;36.986;-121.936;2024-02-28T06:08:39;101415.84;;;12.43;79.88
22333;BME280;11334;36.986;-121.936;2024-02-28T06:11:06;101409.66;;;12.42;80.38
22333;BME280;11334;36.986;-121.936;2024-02-28T06:13:33;101414.16;;;12.42;79.83
22333;BME280;11334;36.986;-121.936;2024-02-28T06:15:59;101416.75;;;12.34;80.49
22333;BME280;11334;36.986;-121.936;2024-02-28T06:18:26;101409.59;;;12.34;80.43
22333;BME280;11334;36.986;-121.936;2024-02-28T06:20:56;101422.50;;;12.30;80.43
22333;BME280;11334;36.986;-121.936;2024-02-28T06:23:23;101409.66;;;12.25;80.67
22333;BME280;11334;36.986;-121.936;2024-02-28T06:25:49;101412.19;;;12.27;81.17
22333;BME280;11334;36.986;-121.936;2024-02-28T06:28:15;101418.09;;;12.21;80.99
22333;BME280;11334;36.986;-121.936;2024-02-28T06:30:43;101422.88;;;12.17;81.80
22333;BME280;11334;36.986;-121.936;2024-02-28T06:33:13;101420.97;;;12.10;81.51
22333;BME280;11334;36.986;-121.936;2024-02-28T06:35:40;101417.34;;;12.11;81.44
22333;BME280;11334;36.986;-121.936;2024-02-28T06:38:07;101416.66;;;12.09;81.84
22333;BME280;11334;36.986;-121.936;2024-02-28T06:40:34;101420.28;;;12.08;81.75
22333;BME280;11334;36.986;-121.936;2024-02-28T06:43:00;101427.84;;;12.03;82.44
22333;BME280;11334;36.986;-121.936;2024-02-28T06:45:27;101427.31;;;11.99;82.85
22333;BME280;11334;36.986;-121.936;2024-02-28T06:47:53;101426.63;;;11.98;82.62
22333;BME280;11334;36.986;-121.936;2024-02-28T06:50:19;101431.13;;;11.97;83.13
22333;BME280;11334;36.986;-121.936;2024-02-28T06:52:46;101428.31;;;11.99;82.84
22333;BME280;11334;36.986;-121.936;2024-02-28T06:55:12;101431.16;;;11.88;83.01
22333;BME280;11334;36.986;-121.936;2024-02-28T06:57:41;101433.28;;;11.84;83.70
22333;BME280;11334;36.986;-121.936;2024-02-28T07:00:09;101438.91;;;11.81;83.56
22333;BME280;11334;36.986;-121.936;2024-02-28T07:02:37;101434.84;;;11.77;83.64
22333;BME280;11334;36.986;-121.936;2024-02-28T07:05:04;101438.50;;;11.76;84.24
22333;BME280;11334;36.986;-121.936;2024-02-28T07:07:31;101430.69;;;11.75;83.96
22333;BME280;11334;36.986;-121.936;2024-02-28T07:09:57;101439.63;;;11.74;84.05
22333;BME280;11334;36.986;-121.936;2024-02-28T07:12:24;101427.63;;;11.70;83.69
22333;BME280;11334;36.986;-121.936;2024-02-28T07:14:51;101435.34;;;11.64;83.83
22333;BME280;11334;36.986;-121.936;2024-02-28T07:17:17;101428.63;;;11.69;84.00
22333;BME280;11334;36.986;-121.936;2024-02-28T07:19:43;101426.97;;;11.59;83.96
22333;BME280;11334;36.986;-121.936;2024-02-28T07:22:10;101423.50;;;11.58;84.18
22333;BME280;11334;36.986;-121.936;2024-02-28T07:24:36;101433.72;;;11.53;84.16
22333;BME280;11334;36.986;-121.936;2024-02-28T07:27:04;101432.06;;;11.52;84.53
22333;BME280;11334;36.986;-121.936;2024-02-28T07:29:30;101431.38;;;11.41;84.73
22333;BME280;11334;36.986;-121.936;2024-02-28T07:31:56;101429.44;;;11.43;84.81
22333;BME280;11334;36.986;-121.936;2024-02-28T07:34:22;101439.22;;;11.42;85.29
22333;BME280;11334;36.986;-121.936;2024-02-28T07:36:49;101439.47;;;11.39;84.94
22333;BME280;11334;36.986;-121.936;2024-02-28T07:39:15;101445.59;;;11.40;85.22
22333;BME280;11334;36.986;-121.936;2024-02-28T07:41:42;101432.78;;;11.35;85.07
22333;BME280;11334;36.986;-121.936;2024-02-28T07:44:08;101431.78;;;11.36;85.51
22333;BME280;11334;36.986;-121.936;2024-02-28T07:46:35;101436.56;;;11.33;85.41
22333;BME280;11334;36.986;-121.936;2024-02-28T07:49:01;101441.84;;;11.33;85.51
22333;BME280;11334;36.986;-121.936;2024-02-28T07:51:28;101440.03;;;11.34;85.11
22333;BME280;11334;36.986;-121.936;2024-02-28T07:53:54;101442.16;;;11.30;85.63
22333;BME280;11334;36.986;-121.936;2024-02-28T07:56:21;101438.41;;;11.23;85.58
22333;BME280;11334;36.986;-121.936;2024-02-28T07:58:48;101440.09;;;11.24;85.77
22333;BME280;11334;36.986;-121.936;2024-02-28T08:01:15;101437.56;;;11.23;85.78
22333;BME280;11334;36.986;-121.936;2024-02-28T08:03:42;101441.88;;;11.24;85.38
22333;BME280;11334;36.986;-121.936;2024-02-28T08:06:10;101444.59;;;11.14;85.22
22333;BME280;11334;36.986;-121.936;2024-02-28T08:08:36;101446.81;;;11.09;85.76
22333;BME280;11334;36.986;-121.936;2024-02-28T08:11:02;101446.13;;;11.07;85.85
22333;BME280;11334;36.986;-121.936;2024-02-28T08:13:29;101445.13;;;11.08;85.70
22333;BME280;11334;36.986;-121.936;2024-02-28T08:15:55;101447.94;;;11.07;86.03
22333;BME280;11334;36.986;-121.936;2024-02-28T08:18:22;101447.78;;;10.99;86.93
22333;BME280;11334;36.986;-121.936;2024-02-28T08:20:48;101444.03;;;11.02;87.34
22333;BME280;11334;36.986;-121.936;2024-02-28T08:23:15;101443.06;;;11.03;86.74
22333;BME280;11334;36.986;-121.936;2024-02-28T08:25:41;101452.13;;;11.00;86.45
22333;BME280;11334;36.986;-121.936;2024-02-28T08:28:08;101440.13;;;10.96;86.96
22333;BME280;11334;36.986;-121.936;2024-02-28T08:30:34;101449.06;;;10.95;86.79
22333;BME280;11334;36.986;-121.936;2024-02-28T08:33:00;101443.19;;;10.92;87.08
22333;BME280;11334;36.986;-121.936;2024-02-28T08:35:26;101442.53;;;10.90;87.24
22333;BME280;11334;36.986;-121.936;2024-02-28T08:37:53;101439.88;;;10.90;87.38
22333;BME280;11334;36.986;-121.936;2024-02-28T08:40:19;101436.81;;;10.85;87.84
22333;BME280;11334;36.986;-121.936;2024-02-28T08:42:45;101431.53;;;10.85;87.61
22333;BME280;11334;36.986;-121.936;2024-02-28T08:45:12;101441.13;;;10.86;87.16
22333;BME280;11334;36.986;-121.936;2024-02-28T08:47:38;101446.44;;;10.86;87.15
22333;BME280;11334;36.986;-121.936;2024-02-28T08:50:06;101440.44;;;10.84;87.17
22333;BME280;11334;36.986;-121.936;2024-02-28T08:52:32;101444.19;;;10.81;87.32
22333;BME280;11334;36.986;-121.936;2024-02-28T08:54:58;101440.19;;;10.77;87.45
22333;BME280;11334;36.986;-121.936;2024-02-28T08:57:25;101439.47;;;10.75;87.67
22333;BME280;11334;36.986;-121.936;2024-02-28T08:59:51;101442.97;;;10.76;87.80
22333;BME280;11334;36.986;-121.936;2024-02-28T09:02:18;101446.03;;;10.72;87.74
22333;BME280;11334;36.986;-121.936;2024-02-28T09:04:44;101439.47;;;10.66;87.57
22333;BME280;11334;36.986;-121.936;2024-02-28T09:07:11;101443.25;;;10.64;88.38
22333;BME280;11334;36.986;-121.936;2024-02-28T09:09:42;101440.72;;;10.62;88.09
22333;BME280;11334;36.986;-121.936;2024-02-28T09:12:09;101436.69;;;10.58;87.99
22333;BME280;11334;36.986;-121.936;2024-02-28T09:14:35;101447.72;;;10.63;88.56
22333;BME280;11334;36.986;-121.936;2024-02-28T09:17:01;101442.41;;;10.63;88.28
22333;BME280;11334;36.986;-121.936;2024-02-28T09:19:31;101445.34;;;10.60;88.68
22333;BME280;11334;36.986;-121.936;2024-02-28T09:21:58;101430.69;;;10.56;88.81
22333;BME280;11334;36.986;-121.936;2024-02-28T09:24:25;101432.50;;;10.56;89.59
22333;BME280;11334;36.986;-121.936;2024-02-28T09:26:51;101445.59;;;10.57;89.43
22333;BME280;11334;36.986;-121.936;2024-02-28T09:29:18;101445.75;;;10.56;89.45
22333;BME280;11334;36.986;-121.936;2024-02-28T09:31:44;101444.06;;;10.55;89.57
22333;BME280;11334;36.986;-121.936;2024-02-28T09:34:10;101442.13;;;10.47;89.56
22333;BME280;11334;36.986;-121.936;2024-02-28T09:36:43;101444.50;;;10.50;90.06
22333;BME280;11334;36.986;-121.936;2024-02-28T09:39:14;101445.47;;;10.49;89.82
22333;BME280;11334;36.986;-121.936;2024-02-28T09:41:41;101446.03;;;10.43;89.79
22333;BME280;11334;36.986;-121.936;2024-02-28T09:44:07;101439.03;;;10.42;90.51
22333;BME280;11334;36.986;-121.936;2024-02-28T09:46:34;101431.25;;;10.41;90.41
22333;BME280;11334;36.986;-121.936;2024-02-28T09:49:04;101434.63;;;10.43;90.48
22333;BME280;11334;36.986;-121.936;2024-02-28T09:51:35;101441.28;;;10.38;90.70
22333;BME280;11334;36.986;-121.936;2024-02-28T09:54:03;101431.78;;;10.35;91.63
22333;BME280;11334;36.986;-121.936;2024-02-28T09:56:30;101441.84;;;10.32;91.09
22333;BME280;11334;36.986;-121.936;2024-02-28T09:58:56;101438.47;;;10.30;91.38
22333;BME280;11334;36.986;-121.936;2024-02-28T10:01:23;101426.22;;;10.29;91.59
22333;BME280;11334;36.986;-121.936;2024-02-28T10:03:52;101427.91;;;10.30;91.59
22333;BME280;11334;36.986;-121.936;2024-02-28T10:06:20;101424.81;;;10.25;91.93
22333;BME280;11334;36.986;-121.936;2024-02-28T10:08:46;101425.53;;;10.27;92.15
22333;BME280;11334;36.986;-121.936;2024-02-28T10:11:23;101427.78;;;10.31;91.45
22333;BME280;11334;36.986;-121.936;2024-02-28T10:13:50;101415.94;;;10.26;91.76
22333;BME280;11334;36.986;-121.936;2024-02-28T10:16:18;101411.59;;;10.25;92.63
22333;BME280;11334;36.986;-121.936;2024-02-28T10:18:45;101415.34;;;10.22;92.77
22333;BME280;11334;36.986;-121.936;2024-02-28T10:21:14;101410.19;;;10.21;92.34
22333;BME280;11334;36.986;-121.936;2024-02-28T10:23:44;101404.75;;;10.22;92.69
22333;BME280;11334;36.986;-121.936;2024-02-28T10:26:11;101408.38;;;10.21;92.69
22333;BME280;11334;36.986;-121.936;2024-02-28T10:28:38;101407.13;;;10.16;93.22
22333;BME280;11334;36.986;-121.936;2024-02-28T10:31:10;101396.41;;;10.08;93.24
22333;BME280;11334;36.986;-121.936;2024-02-28T10:33:36;101402.53;;;10.09;93.69
22333;BME280;11334;36.986;-121.936;2024-02-28T10:36:05;101401.25;;;10.12;93.50
22333;BME280;11334;36.986;-121.936;2024-02-28T10:38:32;101400.44;;;10.12;93.61
22333;BME280;11334;36.986;-121.936;2024-02-28T10:41:02;101395.00;;;10.04;93.70
22333;BME280;11334;36.986;-121.936;2024-02-28T10:43:29;101397.91;;;10.10;93.94
22333;BME280;11334;36.986;-121.936;2024-02-28T10:45:57;101391.34;;;10.05;94.04
22333;BME280;11334;36.986;-121.936;2024-02-28T10:48:25;101393.88;;;10.07;93.99
22333;BME280;11334;36.986;-121.936;2024-02-28T10:50:52;101387.47;;;10.00;94.16
22333;BME280;11334;36.986;-121.936;2024-02-28T10:53:36;101392.47;;;9.93;94.33
22333;BME280;11334;36.986;-121.936;2024-02-28T10:56:04;101398.44;;;9.95;94.60
22333;BME280;11334;36.986;-121.936;2024-02-28T10:58:51;101404.44;;;9.97;94.73
22333;BME280;11334;36.986;-121.936;2024-02-28T11:01:18;101391.16;;;9.88;94.89
22333;BME280;11334;36.986;-121.936;2024-02-28T11:03:45;101394.41;;;9.91;94.78
22333;BME280;11334;36.986;-121.936;2024-02-28T11:06:18;101387.19;;;9.93;94.71
22333;BME280;11334;36.986;-121.936;2024-02-28T11:08:48;101385.50;;;9.92;94.26
22333;BME280;11334;36.986;-121.936;2024-02-28T11:11:15;101391.22;;;9.97;94.02
22333;BME280;11334;36.986;-121.936;2024-02-28T11:13:53;101386.31;;;9.93;93.95
22333;BME280;11334;36.986;-121.936;2024-02-28T11:16:31;101380.19;;;9.92;93.84
22333;BME280;11334;36.986;-121.936;2024-02-28T11:18:57;101379.75;;;9.87;93.58
22333;BME280;11334;36.986;-121.936;2024-02-28T11:21:27;101371.25;;;9.84;94.10
22333;BME280;11334;36.986;-121.936;2024-02-28T11:24:01;101377.66;;;9.81;94.36
22333;BME280;11334;36.986;-121.936;2024-02-28T11:26:27;101372.06;;;9.75;94.81
22333;BME280;11334;36.986;-121.936;2024-02-28T11:28:55;101371.22;;;9.75;94.98
22333;BME280;11334;36.986;-121.936;2024-02-28T11:31:21;101375.69;;;9.74;95.02
22333;BME280;11334;36.986;-121.936;2024-02-28T11:33:48;101380.81;;;9.76;95.26
22333;BME280;11334;36.986;-121.936;2024-02-28T11:36:14;101379.16;;;9.75;94.64
22333;BME280;11334;36.986;-121.936;2024-02-28T11:38:41;101378.75;;;9.70;95.25
22333;BME280;11334;36.986;-121.936;2024-02-28T11:41:07;101384.31;;;9.67;95.28
22333;BME280;11334;36.986;-121.936;2024-02-28T11:43:34;101379.28;;;9.64;95.24
22333;BME280;11334;36.986;-121.936;2024-02-28T11:46:00;101368.28;;;9.59;95.89
22333;BME280;11334;36.986;-121.936;2024-02-28T11:48:27;101369.81;;;9.61;95.63
22333;BME280;11334;36.986;-121.936;2024-02-28T11:50:54;101378.59;;;9.62;95.27
22333;BME280;11334;36.986;-121.936;2024-02-28T11:53:20;101370.78;;;9.60;94.70
22333;BME280;11334;36.986;-121.936;2024-02-28T11:55:46;101376.06;;;9.60;95.09
22333;BME280;11334;36.986;-121.936;2024-02-28T11:58:13;101368.28;;;9.59;95.22
22333;BME280;11334;36.986;-121.936;2024-02-28T12:00:50;101363.78;;;9.50;95.46
22333;BME280;11334;36.986;-121.936;2024-02-28T12:03:23;101372.72;;;9.49;95.47
22333;BME280;11334;36.986;-121.936;2024-02-28T12:05:51;101364.78;;;9.49;95.89
22333;BME280;11334;36.986;-121.936;2024-02-28T12:08:18;101360.75;;;9.54;96.41
22333;BME280;11334;36.986;-121.936;2024-02-28T12:10:47;101363.66;;;9.51;96.32
22333;BME280;11334;36.986;-121.936;2024-02-28T12:13:17;101355.16;;;9.48;96.50
22333;BME280;11334;36.986;-121.936;2024-02-28T12:15:44;101360.59;;;9.46;96.41
22333;BME280;11334;36.986;-121.936;2024-02-28T12:18:11;101355.16;;;9.48;96.73
22333;BME280;11334;36.986;-121.936;2024-02-28T12:20:37;101354.44;;;9.46;97.32